createdAt,value
2019-05-11T00:00:05.344Z,6.12
2019-05-11T00:05:07.805Z,6.85
2019-05-11T00:10:09.999Z,6.58
2019-05-11T00:15:12.260Z,7.22
2019-05-11T00:20:14.354Z,6.87
2019-05-11T00:25:16.388Z,6.65
2019-05-11T00:30:18.792Z,7.00
2019-05-11T00:35:20.839Z,7.08
2019-05-11T00:40:22.905Z,6.55
2019-05-11T00:45:25.048Z,6.72
2019-05-11T00:50:38.878Z,7.30
2019-05-11T00:55:31.350Z,8.70
2019-05-11T01:00:33.566Z,7.12
2019-05-11T01:05:35.638Z,7.95
2019-05-11T01:10:42.274Z,8.50
2019-05-11T01:15:41.638Z,7.75
2019-05-11T01:20:43.959Z,7.22
2019-05-11T01:25:46.468Z,6.87
2019-05-11T01:30:48.599Z,7.17
2019-05-11T01:35:51.250Z,7.15
2019-05-11T01:40:58.704Z,7.72
2019-05-11T01:45:57.439Z,8.23
2019-05-11T01:50:59.522Z,8.48
2019-05-11T01:56:01.821Z,9.20
2019-05-11T02:01:03.967Z,9.43
2019-05-11T02:06:06.085Z,8.90
2019-05-11T02:11:15.725Z,9.38
2019-05-11T02:16:12.063Z,9.80
2019-05-11T02:21:14.170Z,10.32
2019-05-11T02:26:16.328Z,9.73
2019-05-11T02:31:18.506Z,10.98
2019-05-11T02:36:20.632Z,10.25
2019-05-11T02:41:35.395Z,10.23
2019-05-11T02:46:26.771Z,10.18
2019-05-11T02:51:28.940Z,10.60
2019-05-11T02:56:31.009Z,11.00
2019-05-11T03:01:33.114Z,10.85
2019-05-11T03:06:35.206Z,10.03
2019-05-11T03:11:54.287Z,9.10
2019-05-11T03:16:41.410Z,8.40
2019-05-11T03:21:43.462Z,9.03
2019-05-11T03:26:45.543Z,8.75
2019-05-11T03:31:47.600Z,8.33
2019-05-11T03:36:49.692Z,8.78
2019-05-11T03:41:51.806Z,9.20
2019-05-11T03:46:53.951Z,9.15
2019-05-11T03:51:56.002Z,8.93
2019-05-11T03:56:58.367Z,7.90
2019-05-11T04:02:00.486Z,8.38
2019-05-11T04:07:02.657Z,8.05
2019-05-11T04:12:04.713Z,7.72
2019-05-11T04:17:06.823Z,7.40
2019-05-11T04:22:09.278Z,7.35
2019-05-11T04:27:11.403Z,8.08
2019-05-11T04:32:13.511Z,7.87
2019-05-11T04:37:15.649Z,7.42
2019-05-11T04:42:17.770Z,6.58
2019-05-11T04:47:19.966Z,6.58
2019-05-11T04:52:22.040Z,6.10
2019-05-11T04:57:24.349Z,6.20
2019-05-11T05:02:27.359Z,6.70
2019-05-11T05:07:30.195Z,6.87
2019-05-11T05:12:34.332Z,7.15
2019-05-11T05:17:36.507Z,7.20
2019-05-11T05:22:38.672Z,7.65
2019-05-11T05:27:40.831Z,7.70
2019-05-11T05:32:42.943Z,7.95
2019-05-11T05:37:45.106Z,7.37
2019-05-11T05:42:47.208Z,7.80
2019-05-11T05:47:49.658Z,8.33
2019-05-11T05:52:51.710Z,8.28
2019-05-11T05:57:53.816Z,7.65
2019-05-11T06:02:55.932Z,7.92
2019-05-11T06:07:58.106Z,8.90
2019-05-11T06:13:00.291Z,7.55
2019-05-11T06:18:02.368Z,8.23
2019-05-11T06:23:04.515Z,6.83
2019-05-11T06:28:06.631Z,6.85
2019-05-11T06:33:08.695Z,6.92
2019-05-11T06:38:11.347Z,6.70
2019-05-11T06:43:13.419Z,6.55
2019-05-11T06:48:15.564Z,6.60
2019-05-11T06:53:17.800Z,6.47
2019-05-11T06:58:19.904Z,6.65
2019-05-11T07:03:22.062Z,5.78
2019-05-11T07:08:24.250Z,6.22
2019-05-11T07:13:26.622Z,6.58
2019-05-11T07:18:28.766Z,6.50
2019-05-11T07:23:31.231Z,6.40
2019-05-11T07:28:33.440Z,6.08
2019-05-11T07:33:37.865Z,6.60
2019-05-11T07:38:39.521Z,6.12
2019-05-11T07:43:41.602Z,5.70
2019-05-11T07:48:47.986Z,5.87
2019-05-11T07:53:50.237Z,7.03
2019-05-11T07:58:52.328Z,6.50
2019-05-11T08:03:54.485Z,6.47
2019-05-11T08:08:58.788Z,5.95
2019-05-11T08:14:00.755Z,6.03
2019-05-11T08:19:06.829Z,7.20
2019-05-11T08:24:09.144Z,7.62
2019-05-11T08:29:11.132Z,7.72
2019-05-11T08:34:13.227Z,7.85
2019-05-11T08:39:15.376Z,7.03
2019-05-11T08:44:18.175Z,7.60
2019-05-11T08:49:20.585Z,7.20
2019-05-11T08:54:22.982Z,7.03
2019-05-11T08:59:25.034Z,7.17
2019-05-11T09:04:28.874Z,6.83
2019-05-11T09:09:31.612Z,7.03
2019-05-11T09:14:33.941Z,7.20
2019-05-11T09:19:36.024Z,6.83
2019-05-11T09:24:38.758Z,6.42
2019-05-11T09:29:41.021Z,6.83
2019-05-11T09:34:43.128Z,6.50
2019-05-11T09:39:47.725Z,5.97
2019-05-11T09:44:49.541Z,6.47
2019-05-11T09:49:51.972Z,5.17
2019-05-11T09:54:54.095Z,4.50
2019-05-11T09:59:58.238Z,4.40
2019-05-11T10:05:00.320Z,4.58
2019-05-11T10:10:02.630Z,4.60
2019-05-11T10:15:08.128Z,4.25
2019-05-11T10:20:10.106Z,3.90
2019-05-11T10:25:12.106Z,4.17
2019-05-11T10:30:14.460Z,3.92
2019-05-11T10:35:18.429Z,3.37
2019-05-11T10:40:22.112Z,3.10
2019-05-11T10:45:25.721Z,3.30
2019-05-11T10:50:28.759Z,3.25
2019-05-11T10:55:31.161Z,3.37
2019-05-11T11:00:34.384Z,3.60
2019-05-11T11:05:38.422Z,3.15
2019-05-11T11:10:40.510Z,3.30
2019-05-11T11:15:42.584Z,3.60
2019-05-11T11:20:44.611Z,3.80
2019-05-11T11:25:48.186Z,3.60
2019-05-11T11:30:50.741Z,3.58
2019-05-11T11:35:52.817Z,3.50
2019-05-11T11:40:54.903Z,3.85
2019-05-11T11:45:58.032Z,3.27
2019-05-11T11:51:00.453Z,2.85
2019-05-11T11:56:03.345Z,2.70
2019-05-11T12:01:07.914Z,2.62
2019-05-11T12:06:09.531Z,2.70
2019-05-11T12:11:11.831Z,3.05
2019-05-11T12:16:13.937Z,2.58
2019-05-11T12:21:18.286Z,3.02
2019-05-11T12:26:20.084Z,2.70
2019-05-11T12:31:22.511Z,3.10
2019-05-11T12:36:24.593Z,3.10
2019-05-11T12:41:28.049Z,3.58
2019-05-11T12:46:30.224Z,3.30
2019-05-11T12:51:32.324Z,3.35
2019-05-11T12:56:35.073Z,3.22
2019-05-11T13:01:38.184Z,3.65
2019-05-11T13:06:40.507Z,2.98
2019-05-11T13:11:42.643Z,2.98
2019-05-11T13:16:48.305Z,3.00
2019-05-11T13:21:51.873Z,2.85
2019-05-11T13:26:54.098Z,2.70
2019-05-11T13:31:56.147Z,2.92
2019-05-11T13:36:58.214Z,2.65
2019-05-11T13:42:00.273Z,2.42
2019-05-11T13:47:02.374Z,2.58
2019-05-11T13:52:04.550Z,2.70
2019-05-11T13:57:08.083Z,2.55
2019-05-11T14:02:11.034Z,2.62
2019-05-11T14:07:13.277Z,2.60
2019-05-11T14:12:15.341Z,2.70
2019-05-11T14:17:18.667Z,2.50
2019-05-11T14:22:21.050Z,3.05
2019-05-11T14:27:23.161Z,2.83
2019-05-11T14:32:25.247Z,2.70
2019-05-11T14:37:28.564Z,2.80
2019-05-11T14:42:30.756Z,3.15
2019-05-11T14:47:33.145Z,2.65
2019-05-11T14:52:35.231Z,3.62
2019-05-11T14:57:39.558Z,3.80
2019-05-11T15:02:49.172Z,3.87
2019-05-11T15:07:53.553Z,4.62
2019-05-11T15:12:55.667Z,4.17
2019-05-11T15:17:58.311Z,4.00
2019-05-11T15:23:00.406Z,4.40
2019-05-11T15:28:02.495Z,4.75
2019-05-11T15:33:04.530Z,5.67
2019-05-11T15:38:08.715Z,6.17
2019-05-11T15:43:11.059Z,5.72
2019-05-11T15:48:13.681Z,5.92
2019-05-11T15:53:17.824Z,6.08
2019-05-11T15:58:22.215Z,7.00
2019-05-11T16:03:24.405Z,6.15
2019-05-11T16:08:28.376Z,5.28
2019-05-11T16:13:30.589Z,5.08
2019-05-11T16:18:32.694Z,4.67
2019-05-11T16:23:34.782Z,5.00
2019-05-11T16:28:38.394Z,4.87
2019-05-11T16:33:40.682Z,5.20
2019-05-11T16:38:42.771Z,5.47
2019-05-11T16:43:44.868Z,6.00
2019-05-11T16:48:47.052Z,5.08
2019-05-11T16:53:49.198Z,5.17
2019-05-11T16:58:54.494Z,4.83
2019-05-11T17:03:57.708Z,4.60
2019-05-11T17:08:59.318Z,4.35
2019-05-11T17:14:01.758Z,4.28
2019-05-11T17:19:04.001Z,4.42
2019-05-11T17:24:10.875Z,3.67
2019-05-11T17:29:12.991Z,3.87
2019-05-11T17:34:17.832Z,3.52
2019-05-11T17:39:22.471Z,3.60
2019-05-11T17:44:25.525Z,3.65
2019-05-11T17:49:27.779Z,3.85
2019-05-11T17:54:29.931Z,3.42
2019-05-11T17:59:32.036Z,3.27
2019-05-11T18:04:34.328Z,3.35
2019-05-11T18:09:38.064Z,3.35
2019-05-11T18:14:40.212Z,3.52
2019-05-11T18:19:42.529Z,3.92
2019-05-11T18:24:44.592Z,4.50
2019-05-11T18:29:48.567Z,3.85
2019-05-11T18:34:50.740Z,4.03
2019-05-11T18:39:52.938Z,4.42
2019-05-11T18:44:58.010Z,4.20
2019-05-11T18:49:59.480Z,4.20
2019-05-11T18:55:01.641Z,4.05
2019-05-11T19:00:08.299Z,4.28
2019-05-11T19:05:12.526Z,4.50
2019-05-11T19:10:14.794Z,5.22
2019-05-11T19:15:18.745Z,4.75
2019-05-11T19:20:21.025Z,4.50
2019-05-11T19:25:24.350Z,6.03
2019-05-11T19:30:27.735Z,5.03
2019-05-11T19:35:31.330Z,6.03
2019-05-11T19:40:33.424Z,6.40
2019-05-11T19:45:38.180Z,6.65
2019-05-11T19:50:41.189Z,6.22
2019-05-11T19:55:43.619Z,6.87
2019-05-11T20:00:45.680Z,7.40
2019-05-11T20:05:48.541Z,6.65
2019-05-11T20:10:50.773Z,6.58
2019-05-11T20:15:52.813Z,7.12
2019-05-11T20:20:54.841Z,7.75
2019-05-11T20:26:01.537Z,7.90
2019-05-11T20:31:03.677Z,6.75
2019-05-11T20:36:05.797Z,7.00
2019-05-11T20:41:08.445Z,6.85
2019-05-11T20:46:10.594Z,7.55
2019-05-11T20:51:12.688Z,8.80
2019-05-11T20:56:15.052Z,7.47
2019-05-11T21:01:21.619Z,8.83
2019-05-11T21:06:23.860Z,7.72
2019-05-11T21:11:25.973Z,6.97
2019-05-11T21:16:28.038Z,7.20
2019-05-11T21:21:30.514Z,7.95
2019-05-11T21:26:32.712Z,7.12
2019-05-11T21:31:37.712Z,8.18
2019-05-11T21:36:39.248Z,9.05
2019-05-11T21:41:41.685Z,8.75
2019-05-11T21:46:44.106Z,8.55
2019-05-11T21:51:48.147Z,8.18
2019-05-11T21:56:50.519Z,8.43
2019-05-11T22:01:52.656Z,8.93
2019-05-11T22:06:54.829Z,8.78
2019-05-11T22:11:56.985Z,8.65
2019-05-11T22:17:02.377Z,8.88
2019-05-11T22:22:17.326Z,9.25
2019-05-11T22:27:08.303Z,8.83
2019-05-11T22:32:10.401Z,8.73
2019-05-11T22:37:12.500Z,9.18
2019-05-11T22:42:14.979Z,9.30
2019-05-11T22:47:17.820Z,8.23
2019-05-11T22:52:32.975Z,10.43
2019-05-11T22:57:24.167Z,8.93
2019-05-11T23:02:28.553Z,9.33
2019-05-11T23:07:30.640Z,9.58
2019-05-11T23:12:32.692Z,9.38
2019-05-11T23:17:35.013Z,9.60
2019-05-11T23:22:56.056Z,9.58
2019-05-11T23:27:51.234Z,9.13
2019-05-11T23:32:53.369Z,8.90
2019-05-11T23:37:57.606Z,8.55
2019-05-11T23:42:59.477Z,9.15
2019-05-11T23:48:01.584Z,8.93
2019-05-11T23:53:06.484Z,8.28
2019-05-11T23:58:08.366Z,8.43
